Aérodrome :
LOGIN :

S'inscrire | Disclaimer

   EN    FR    IT 

 










Légende :    VFR   VFR Marginal   IFR   IFR Intensif   IFR Très Intensif
Visi : 
Plafond : 
>= 8 km
>= 3000ft
5 à 8 km
1000 à 3000 ft
1500m à 5 km
500 à 1000 ft
800 à 1500m
200 à 500 ft
< 800m
< 200 ft
Symboles :   Orages  Brouillard  Fortes neiges  Fortes précipitations  Vent > 20 kt
SIGMETs :   Divers  Orages  Givrage  Turbulence  Onde Orograph.  Cendres Volcan.






- Altitude de l'aérodrome : 17 ft
- Code IATA : MPL


LFMT - Montpellier Méditerranée

DERNIER METAR :
  • 292000Z AUTO 02009KT CAVOK 05/02 Q1018 NOSIG

METARs EXPIRÉS :
  • 291930Z AUTO 02008KT CAVOK 06/03 Q1018 NOSIG
  • 291900Z AUTO 03008KT CAVOK 07/03 Q1018 NOSIG
  • 291830Z AUTO 03008KT CAVOK 08/03 Q1017 NOSIG
  • 291800Z AUTO 05005KT CAVOK 08/04 Q1017 NOSIG
  • 291730Z AUTO 04006KT CAVOK 09/04 Q1017 NOSIG

TAF TAF LFMT
Valide du 29 à 15h jusqu'au 30 à 15h UTC


291400Z 2915/3015 VRB04KT CAVOK
BECMG 2918/2920 02008KT
ATIS : +33 4 67 13 11 70



MET'MAP, la Météo Aéronautique d'un coup d'oeil ! - Copyright ORBIFLY Décembre 2007 - Disclaimer

ORBIFLY MET'MAP TEAM :

Programmation & Développement : Alexandra Zaïnal
Sur une idée originale de : Baudouin d'Aumeries
Assistance à la programmation : Marc-Olivier Méhu
Soutien technique & logistique : Manuel Goepfert

Contact : metmap@orbifly.com




SOURCES & CREDITS :

   NOAA